Řízení letového provozu České republiky  
Aktualizace dat:  22.04.2024 02:41:00 UTC English version
   METEO Zobrazení stránky:  22.04.2024 02:40:49 UTC  
vysvětlivky
METAR EDAC 220220Z AUTO VRB01KT 9999 // SCT038/// OVC052/// 00/M00 Q1022=
METAR EDDB 220220Z AUTO 02005KT CAVOK M01/M04 Q1024 NOSIG=
METAR EDDC 220220Z AUTO 32004KT 9999 FEW016 M02/M02 Q1022=
METAR EDDE 220220Z AUTO 33005KT 9999 FEW017 BKN022 BKN042 01/M01 Q1022=
METAR EDDF 220220Z AUTO 01009KT CAVOK 02/M03 Q1023 NOSIG=
METAR EDDM 220220Z AUTO 03006KT 9999 BKN027 OVC038 01/M00 Q1018 NOSIG=
METAR EDDN 220220Z AUTO VRB01KT CAVOK M01/M02 Q1021=
METAR EDDP 220220Z AUTO 02008KT 9999 FEW037 BKN049 01/M04 Q1023 NOSIG=
METAR EDQM 220220Z AUTO 34004KT 9999 // BKN012/// BKN023/// M02/M02 Q1020=
METAR EPBY 220230Z 33009KT 9999 BKN038 01/M03 Q1021=
METAR EPGD 220230Z 32008KT 9999 SCT010 BKN034 M00/M02 Q1020=
METAR EPKK 220230Z 34008KT 9999 SCT013 OVC017 03/01 Q1017=
METAR EPKT 220230Z 35007KT 9999 -SN FEW006 BKN009 OVC043 01/M00 Q1018 =
METAR EPLB 220230Z 31008KT 9999 SCT012 OVC028 03/01 Q1015=
METAR EPLL 220230Z 28004KT CAVOK M02/M03 Q1019=
METAR EPMO 220230Z 29007KT 9999 SCT036 BKN047 02/M02 Q1018=
METAR EPPO 220230Z 35004KT 9999 SCT040 M01/M04 Q1022=
METAR EPRZ 220230Z 34006KT 300V010 9999 BKN008 OVC015 04/02 Q1016=
METAR EPWA 220230Z 30008KT 9999 BKN040 02/M02 Q1018 NOSIG=
METAR EPWR 220230Z 36005KT 330V030 CAVOK 01/M03 Q1021=
METAR LHBP 220230Z 31001KT 9999 FEW010 SCT022 OVC029 07/06 Q1015 NOSIG=
METAR LHPR 220215Z AUTO 27007KT CAVOK 02/00 Q1017=
METAR LHSM 220215Z AUTO 33010KT 9999 FEW033 03/00 Q1017=
METAR LKBC 220230Z AUTO 29003KT //// // NCD M03/M04 Q1019=
METAR LKCR 220230Z AUTO 30008KT 9999 OVC025 01/M01 Q1019=
METAR LKCS 220230Z AUTO 31002KT CAVOK M02/M03 Q1019=
METAR LKCV 220230Z 31006KT 9999 OVC025 01/M02 Q1020 NOSIG RMK BLU BLU=
METAR LKKB 220230Z AUTO 30004KT 9999 OVC063/// M00/M03 Q1020=
METAR LKKU NIL
METAR LKKV 220200Z VRB02KT 9999 FEW036 M05/M05 Q1020=
METAR LKLN 220230Z AUTO 00000KT 9999 // NCD M03/M04 Q1021=
METAR LKMT 220230Z 36009KT 9999 -RA BKN008 OVC013 02/01 Q1018 NOSIG=
METAR LKNA 220230Z 31006KT 9999 SCT040 01/M02 Q1018 RMK BLU=
METAR LKPD 220230Z 31003KT 280V350 9999 OVC026 02/M01 Q1020 RMK BLU=
METAR LKPJ 220230Z AUTO 33006KT 9999 // FEW025/// BKN031/// OVC051/// 03/00 Q1018=
METAR LKPR 220230Z 31004KT CAVOK M02/M04 Q1020 NOSIG=
METAR LKTB 220230Z 34010KT 310V010 9999 OVC029 03/M01 Q1018 NOSIG=
SPECI LKTH 220237Z AUTO 04007KT 350V090 9999 BKN009 BKN014 OVC066 00/M02 Q1018=
METAR LKVO NIL
METAR LOWG 220220Z AUTO VRB01KT 9999 NCD M01/M03 Q1017=
METAR LOWI 220220Z AUTO VRB01KT 9999 FEW005 BKN008 02/01 Q1017=
METAR LOWK 220220Z AUTO VRB02KT 9999 FEW050 02/M01 Q1016=
METAR LOWL 220220Z AUTO 02004KT 9999 BKN060 01/M02 Q1019=
METAR LOWS 220220Z AUTO 25002KT 7000 -SN FEW003 BKN006 01/00 Q1018=
METAR LOWW 220220Z 33011KT 9999 SCT022 BKN044 04/M00 Q1018 NOSIG=
METAR LOXT NIL
METAR LOXZ NIL
METAR LZIB 220230Z 34008KT 9999 FEW030 BKN035 05/01 Q1017 NOSIG=
METAR LZKZ 220230Z 36014KT 9999 FEW028 06/01 Q1014 NOSIG=
METAR LZMC 220200Z AUTO 35007KT 310V030 5000 R19/1500 ////// 04/01 Q1018=
METAR LZPP 220230Z AUTO 35008KT 9999 BKN025/// OVC043/// 04/02 Q1016=
METAR LZSL 220200Z AUTO 19004KT 9999 // OVC069/// 04/01 Q1015=
METAR LZTT 220230Z VRB02KT 9999 SCT013 BKN023 01/M00 Q1014=
METAR LZZI 220230Z 05003KT 330V120 9999 -RA FEW011 OVC024 03/01 Q1016=